Time;durP1;ratioP1;P1;durP2;ratioP2;P2;SDS_P1;SDS_P2;PMS_P1;PMS_P2;Temp;Humidity;BMP_temperature;BMP_pressure;BME280_temperature;BME280_humidity;BME280_pressure;Samples;Min_cycle;Max_cycle;Signal;HPM_P1;HPM_P2
2024/03/12 00:01:09;;;;;;;28.42;26.83;;;;;;;;;;5114704;27;20026;-59
2024/03/12 00:03:35;;;;;;;25.58;24.17;;;;;;;;;;5113165;27;20040;-60
2024/03/12 00:06:01;;;;;;;23.77;22.48;;;;;;;;;;5114780;27;20445;-59
2024/03/12 00:08:27;;;;;;;23.67;22.38;;;;;;;;;;5114998;27;20049;-58
2024/03/12 00:10:53;;;;;;;27.23;25.63;;;;;;;;;;5116110;27;20028;-58
2024/03/12 00:13:19;;;;;;;26.27;24.85;;;;;;;;;;5095587;27;20112;-59
2024/03/12 00:15:46;;;;;;;24.30;22.90;;;;;;;;;;5116622;27;20069;-59
2024/03/12 00:18:12;;;;;;;24.08;22.77;;;;;;;;;;5114064;27;20035;-59
2024/03/12 00:20:39;;;;;;;24.42;23.02;;;;;;;;;;5112102;27;20035;-59
2024/03/12 00:23:08;;;;;;;24.02;22.73;;;;;;;;;;5113706;27;20039;-59
2024/03/12 00:25:34;;;;;;;25.92;24.42;;;;;;;;;;5110943;27;20035;-59
2024/03/12 00:28:00;;;;;;;27.77;26.02;;;;;;;;;;5115565;27;20114;-59
2024/03/12 00:30:26;;;;;;;25.08;23.67;;;;;;;;;;5112462;27;20088;-59
2024/03/12 00:32:54;;;;;;;28.08;26.35;;;;;;;;;;5112424;27;20419;-59
2024/03/12 00:35:21;;;;;;;24.77;23.48;;;;;;;;;;5111273;27;20028;-59
2024/03/12 00:37:47;;;;;;;24.58;23.17;;;;;;;;;;5130840;27;20079;-58
2024/03/12 00:40:13;;;;;;;29.20;27.60;;;;;;;;;;5094973;27;20373;-58
2024/03/12 00:42:39;;;;;;;27.45;25.95;;;;;;;;;;5112092;27;20046;-59
2024/03/12 00:45:07;;;;;;;31.55;29.90;;;;;;;;;;5121001;27;20031;-59
2024/03/12 00:47:33;;;;;;;28.60;27.05;;;;;;;;;;5114716;27;20076;-58
2024/03/12 00:50:00;;;;;;;28.45;26.95;;;;;;;;;;5118264;27;20032;-59
2024/03/12 00:52:26;;;;;;;29.85;28.17;;;;;;;;;;5111320;27;20060;-59
2024/03/12 00:54:51;;;;;;;26.05;24.65;;;;;;;;;;5117980;27;20031;-59
2024/03/12 00:57:17;;;;;;;28.17;26.67;;;;;;;;;;5095370;27;20049;-59
2024/03/12 00:59:42;;;;;;;27.30;25.83;;;;;;;;;;5111601;27;20059;-57
2024/03/12 01:02:12;;;;;;;27.52;26.02;;;;;;;;;;5113716;27;20110;-58
2024/03/12 01:04:40;;;;;;;28.92;25.95;;;;;;;;;;5112245;27;20784;-59
2024/03/12 01:07:07;;;;;;;27.10;25.65;;;;;;;;;;5111403;27;20039;-59
2024/03/12 01:09:39;;;;;;;27.70;26.25;;;;;;;;;;5094413;27;20092;-54
2024/03/12 01:12:06;;;;;;;27.27;25.83;;;;;;;;;;5111421;27;20062;-56
2024/03/12 01:14:31;;;;;;;27.65;26.17;;;;;;;;;;5093440;27;20468;-56
2024/03/12 01:16:56;;;;;;;28.83;27.33;;;;;;;;;;5097017;27;20042;-57
2024/03/12 01:19:22;;;;;;;30.98;29.17;;;;;;;;;;5116549;27;20035;-57
2024/03/12 01:21:48;;;;;;;30.98;29.35;;;;;;;;;;5115403;27;20038;-57
2024/03/12 01:24:13;;;;;;;33.70;31.90;;;;;;;;;;5113625;27;20030;-56
2024/03/12 01:26:39;;;;;;;34.33;32.42;;;;;;;;;;5113275;27;20035;-56
2024/03/12 01:29:05;;;;;;;31.13;29.48;;;;;;;;;;5116247;27;20110;-58
2024/03/12 01:31:31;;;;;;;33.05;31.25;;;;;;;;;;5112430;27;20031;-58
2024/03/12 01:33:56;;;;;;;33.20;31.50;;;;;;;;;;5117035;27;20147;-59
2024/03/12 01:36:34;;;;;;;31.27;29.60;;;;;;;;;;5113144;27;20088;-59
2024/03/12 01:39:03;;;;;;;32.63;30.92;;;;;;;;;;5113600;27;20042;-59
2024/03/12 01:41:32;;;;;;;32.72;31.02;;;;;;;;;;5093765;27;20032;-59
2024/03/12 01:44:02;;;;;;;33.45;31.65;;;;;;;;;;5110511;27;20047;-58
2024/03/12 01:46:30;;;;;;;32.08;30.38;;;;;;;;;;5114216;27;20793;-59
2024/03/12 01:48:58;;;;;;;34.03;32.22;;;;;;;;;;5114317;27;20039;-59
2024/03/12 01:51:25;;;;;;;33.28;31.48;;;;;;;;;;5114037;27;20054;-59
2024/03/12 01:53:50;;;;;;;31.75;30.05;;;;;;;;;;5097683;27;20031;-59
2024/03/12 01:56:17;;;;;;;34.45;32.65;;;;;;;;;;5112913;27;20039;-59
2024/03/12 01:58:44;;;;;;;32.13;30.42;;;;;;;;;;5113361;27;20036;-59
2024/03/12 02:01:09;;;;;;;32.45;30.75;;;;;;;;;;5113361;27;20465;-58
2024/03/12 02:03:35;;;;;;;31.85;30.13;;;;;;;;;;5093694;28;20047;-58
2024/03/12 02:06:00;;;;;;;32.03;30.30;;;;;;;;;;5112893;27;20456;-58
2024/03/12 02:08:26;;;;;;;30.55;28.95;;;;;;;;;;5113975;27;20027;-58
2024/03/12 02:10:51;;;;;;;34.05;32.15;;;;;;;;;;5110116;27;20111;-58
2024/03/12 02:13:17;;;;;;;32.72;30.90;;;;;;;;;;5093613;27;20440;-58
2024/03/12 02:15:43;;;;;;;31.95;30.27;;;;;;;;;;5110383;27;20668;-58
2024/03/12 02:18:09;;;;;;;29.63;27.98;;;;;;;;;;5114031;27;20642;-58
2024/03/12 02:20:35;;;;;;;30.38;28.73;;;;;;;;;;5109448;27;20395;-58
2024/03/12 02:23:00;;;;;;;30.77;29.10;;;;;;;;;;5112983;27;20031;-58
2024/03/12 02:25:26;;;;;;;32.78;31.05;;;;;;;;;;5110619;28;20108;-59
2024/03/12 02:27:52;;;;;;;35.15;33.25;;;;;;;;;;5091168;28;20038;-59
2024/03/12 02:30:17;;;;;;;31.58;29.77;;;;;;;;;;5111139;28;20090;-57
2024/03/12 02:32:46;;;;;;;30.15;28.55;;;;;;;;;;5097107;28;20393;-58
2024/03/12 02:35:11;;;;;;;31.08;29.40;;;;;;;;;;5113227;28;20035;-58
2024/03/12 02:37:38;;;;;;;32.72;30.95;;;;;;;;;;5096960;28;20042;-58
2024/03/12 02:40:08;;;;;;;29.75;28.05;;;;;;;;;;5114655;28;20359;-59
2024/03/12 02:42:33;;;;;;;28.48;26.98;;;;;;;;;;5096048;28;20035;-58
2024/03/12 02:44:59;;;;;;;29.65;27.88;;;;;;;;;;5114343;28;20043;-59
2024/03/12 02:47:24;;;;;;;31.20;29.50;;;;;;;;;;5113312;28;20039;-59
2024/03/12 02:49:50;;;;;;;29.33;27.73;;;;;;;;;;5112729;28;20028;-59
2024/03/12 02:52:15;;;;;;;32.40;30.70;;;;;;;;;;5111951;28;20037;-58
2024/03/12 02:54:41;;;;;;;29.83;28.23;;;;;;;;;;5111408;28;20080;-57
2024/03/12 02:57:08;;;;;;;33.47;31.67;;;;;;;;;;5109598;28;20471;-57
2024/03/12 02:59:34;;;;;;;36.28;34.38;;;;;;;;;;5111938;27;20066;-58
2024/03/12 03:02:00;;;;;;;38.63;36.63;;;;;;;;;;5114436;27;20066;-58
2024/03/12 03:04:26;;;;;;;34.60;32.80;;;;;;;;;;5114925;27;20840;-58
2024/03/12 03:06:52;;;;;;;35.28;33.38;;;;;;;;;;5116630;27;20035;-58
2024/03/12 03:09:18;;;;;;;32.97;31.27;;;;;;;;;;5112844;27;20122;-57
2024/03/12 03:11:44;;;;;;;33.97;32.17;;;;;;;;;;5114396;27;20141;-57
2024/03/12 03:14:10;;;;;;;33.20;31.50;;;;;;;;;;5116626;27;20069;-58
2024/03/12 03:16:35;;;;;;;32.45;30.75;;;;;;;;;;5118493;27;20399;-58
2024/03/12 03:19:01;;;;;;;35.65;33.78;;;;;;;;;;5118913;27;20038;-58
2024/03/12 03:21:26;;;;;;;32.72;30.88;;;;;;;;;;5105427;27;20042;-57
2024/03/12 03:23:52;;;;;;;28.90;27.35;;;;;;;;;;5116934;27;20034;-58
2024/03/12 03:26:18;;;;;;;28.77;27.17;;;;;;;;;;5113100;27;20579;-58
2024/03/12 03:28:43;;;;;;;29.98;28.38;;;;;;;;;;5112677;27;20460;-58
2024/03/12 03:31:10;;;;;;;30.27;28.67;;;;;;;;;;5116214;27;20540;-58
2024/03/12 03:33:38;;;;;;;31.30;29.60;;;;;;;;;;5114255;27;20122;-58
2024/03/12 03:36:03;;;;;;;34.35;32.53;;;;;;;;;;5115047;27;20031;-58
2024/03/12 03:38:29;;;;;;;30.92;29.30;;;;;;;;;;5115363;27;20036;-58
2024/03/12 03:40:55;;;;;;;31.60;29.90;;;;;;;;;;5097209;27;20040;-57
2024/03/12 03:43:20;;;;;;;31.48;29.77;;;;;;;;;;5115933;27;20035;-57
2024/03/12 03:45:46;;;;;;;29.98;28.27;;;;;;;;;;5112707;27;20028;-58
2024/03/12 03:48:11;;;;;;;26.00;24.60;;;;;;;;;;5114053;27;20034;-58
2024/03/12 03:50:37;;;;;;;28.65;27.05;;;;;;;;;;5114382;27;20035;-58
2024/03/12 03:53:02;;;;;;;25.63;24.13;;;;;;;;;;5116072;27;20023;-58
2024/03/12 03:55:28;;;;;;;27.08;25.67;;;;;;;;;;5114881;27;20070;-58
2024/03/12 03:57:53;;;;;;;27.83;26.33;;;;;;;;;;5118448;27;20048;-58
2024/03/12 04:00:28;;;;;;;28.27;26.60;;;;;;;;;;5116729;27;20604;-58
2024/03/12 04:02:54;;;;;;;25.95;24.55;;;;;;;;;;5114527;27;20039;-58
2024/03/12 04:05:21;;;;;;;29.88;28.27;;;;;;;;;;5114761;27;20132;-58
2024/03/12 04:07:46;;;;;;;30.40;28.80;;;;;;;;;;5118423;27;20088;-58
2024/03/12 04:10:12;;;;;;;31.67;30.02;;;;;;;;;;5114811;27;20036;-58
2024/03/12 04:12:41;;;;;;;31.83;30.15;;;;;;;;;;5097454;27;20049;-58
2024/03/12 04:15:06;;;;;;;32.92;31.20;;;;;;;;;;5116667;27;20345;-58
2024/03/12 04:17:32;;;;;;;30.67;28.98;;;;;;;;;;5112787;27;20035;-58
2024/03/12 04:19:57;;;;;;;34.00;31.73;;;;;;;;;;5112875;27;20031;-57
2024/03/12 04:22:22;;;;;;;35.33;33.33;;;;;;;;;;5115823;27;20699;-57
2024/03/12 04:24:48;;;;;;;34.85;33.05;;;;;;;;;;5093151;28;20746;-58
2024/03/12 04:27:14;;;;;;;31.38;29.75;;;;;;;;;;5113006;27;20028;-57
2024/03/12 04:29:43;;;;;;;31.02;29.42;;;;;;;;;;5117444;27;20042;-57
2024/03/12 04:32:09;;;;;;;33.40;31.50;;;;;;;;;;5094721;27;20065;-58
2024/03/12 04:34:37;;;;;;;40.03;37.92;;;;;;;;;;5115902;27;20034;-58
2024/03/12 04:37:07;;;;;;;38.42;36.42;;;;;;;;;;5115074;27;20592;-57
2024/03/12 04:39:32;;;;;;;40.65;38.55;;;;;;;;;;5095372;27;20100;-57
2024/03/12 04:42:04;;;;;;;41.13;39.00;;;;;;;;;;5114534;27;20110;-58
2024/03/12 04:44:33;;;;;;;39.92;37.72;;;;;;;;;;5113103;27;20062;-58
2024/03/12 04:46:58;;;;;;;44.45;42.05;;;;;;;;;;5113299;27;20035;-58
2024/03/12 04:49:25;;;;;;;43.55;41.22;;;;;;;;;;5116586;27;20042;-58
2024/03/12 04:51:50;;;;;;;41.88;39.65;;;;;;;;;;5112974;27;20039;-58
2024/03/12 04:54:19;;;;;;;42.58;40.35;;;;;;;;;;5112894;27;20031;-58
2024/03/12 04:56:50;;;;;;;44.28;42.00;;;;;;;;;;5112310;27;20051;-58
2024/03/12 04:59:16;;;;;;;;;;;;;;;;;;5115964;27;20043;-58
2024/03/12 05:01:45;;;;;;;41.55;39.30;;;;;;;;;;5112148;27;19919;-58
2024/03/12 05:04:14;;;;;;;46.15;43.70;;;;;;;;;;5113919;27;20039;-59
2024/03/12 05:06:39;;;;;;;49.47;46.85;;;;;;;;;;5095554;27;20039;-58
2024/03/12 05:09:06;;;;;;;53.30;50.60;;;;;;;;;;5117817;27;20123;-58
2024/03/12 05:11:34;;;;;;;49.58;47.05;;;;;;;;;;5111707;27;20372;-58
2024/03/12 05:14:00;;;;;;;49.75;47.15;;;;;;;;;;5112031;27;20019;-56
2024/03/12 05:16:26;;;;;;;47.70;45.20;;;;;;;;;;5114904;27;20368;-56
2024/03/12 05:18:51;;;;;;;48.60;45.80;;;;;;;;;;5092956;27;20428;-58
2024/03/12 05:21:17;;;;;;;48.00;45.55;;;;;;;;;;5114664;27;20716;-57
2024/03/12 05:23:42;;;;;;;48.00;45.58;;;;;;;;;;5115276;27;20047;-57
2024/03/12 05:26:08;;;;;;;50.38;47.78;;;;;;;;;;5115517;27;20039;-57
2024/03/12 05:28:35;;;;;;;52.28;49.47;;;;;;;;;;5116059;27;20105;-57
2024/03/12 05:31:01;;;;;;;48.58;45.97;;;;;;;;;;5114928;27;20031;-58
2024/03/12 05:33:29;;;;;;;51.28;48.58;;;;;;;;;;5116795;27;20041;-58
2024/03/12 05:35:56;;;;;;;45.03;42.67;;;;;;;;;;5112069;27;20031;-58
2024/03/12 05:38:32;;;;;;;45.00;42.67;;;;;;;;;;5115216;27;20525;-58
2024/03/12 05:41:14;;;;;;;44.85;42.55;;;;;;;;;;5110099;27;20031;-58
2024/03/12 05:49:10;;;;;;;40.65;38.45;;;;;;;;;;5113976;27;20031;-58
2024/03/12 05:51:36;;;;;;;35.88;34.00;;;;;;;;;;5113952;27;20035;-58
2024/03/12 05:54:06;;;;;;;40.05;37.85;;;;;;;;;;5112349;27;20051;-58
2024/03/12 05:56:31;;;;;;;38.25;36.30;;;;;;;;;;5117046;27;20869;-58
2024/03/12 05:58:58;;;;;;;37.13;35.17;;;;;;;;;;5114126;27;20030;-59
2024/03/12 06:01:24;;;;;;;41.08;38.95;;;;;;;;;;5118106;27;20039;-58
2024/03/12 06:03:52;;;;;;;42.03;39.78;;;;;;;;;;5114042;27;20031;-58
2024/03/12 06:06:17;;;;;;;40.33;38.20;;;;;;;;;;5093534;28;20784;-58
2024/03/12 06:08:44;;;;;;;39.85;37.72;;;;;;;;;;5112725;27;20035;-58
2024/03/12 06:11:11;;;;;;;45.28;42.92;;;;;;;;;;5108678;27;20031;-58
2024/03/12 06:13:38;;;;;;;48.95;46.42;;;;;;;;;;5108269;27;20031;-58
2024/03/12 06:16:04;;;;;;;47.85;45.40;;;;;;;;;;5108290;27;20034;-58
2024/03/12 06:18:29;;;;;;;48.17;45.45;;;;;;;;;;5114658;27;20027;-58
2024/03/12 06:20:55;;;;;;;53.70;51.00;;;;;;;;;;5097870;28;20479;-58
2024/03/12 06:23:22;;;;;;;48.92;46.45;;;;;;;;;;5115046;27;20031;-58
2024/03/12 06:25:47;;;;;;;46.22;43.83;;;;;;;;;;5110754;28;20031;-56
2024/03/12 06:28:13;;;;;;;46.10;43.55;;;;;;;;;;5114041;28;20038;-58
2024/03/12 06:30:39;;;;;;;46.42;44.05;;;;;;;;;;5109991;28;20055;-59
2024/03/12 06:33:08;;;;;;;48.40;45.92;;;;;;;;;;5092981;28;20094;-58
2024/03/12 06:35:34;;;;;;;52.78;50.10;;;;;;;;;;5113988;27;20087;-61
2024/03/12 06:38:01;;;;;;;56.97;54.08;;;;;;;;;;5112602;27;20509;-61
2024/03/12 06:40:26;;;;;;;58.28;55.33;;;;;;;;;;5093715;27;20038;-60
2024/03/12 06:42:51;;;;;;;50.83;48.20;;;;;;;;;;5114687;27;20046;-61
2024/03/12 06:45:17;;;;;;;53.60;50.88;;;;;;;;;;5115499;27;20063;-61
2024/03/12 06:47:42;;;;;;;51.20;48.58;;;;;;;;;;5109386;27;20031;-62
2024/03/12 06:50:08;;;;;;;46.78;44.40;;;;;;;;;;5113588;27;20110;-61
2024/03/12 06:52:34;;;;;;;48.58;46.05;;;;;;;;;;5096664;27;20053;-62
2024/03/12 06:55:04;;;;;;;58.22;55.28;;;;;;;;;;5112880;27;20031;-61
2024/03/12 06:57:32;;;;;;;58.55;55.50;;;;;;;;;;5099609;27;20119;-61
2024/03/12 06:59:59;;;;;;;48.20;45.70;;;;;;;;;;5115587;27;20145;-61
2024/03/12 07:02:24;;;;;;;50.42;47.85;;;;;;;;;;5113380;27;20035;-59
2024/03/12 07:04:51;;;;;;;60.90;57.78;;;;;;;;;;5116366;27;20038;-59
2024/03/12 07:07:19;;;;;;;57.75;54.78;;;;;;;;;;5116423;27;20057;-59
2024/03/12 07:09:51;;;;;;;46.63;44.08;;;;;;;;;;5114910;27;20028;-59
2024/03/12 07:12:18;;;;;;;55.47;52.65;;;;;;;;;;5117444;27;20035;-59
2024/03/12 07:14:45;;;;;;;47.25;44.78;;;;;;;;;;5103495;27;20209;-59
2024/03/12 07:17:14;;;;;;;45.53;43.13;;;;;;;;;;5114948;27;20364;-59
2024/03/12 07:19:40;;;;;;;40.50;38.35;;;;;;;;;;5117312;27;20027;-59
2024/03/12 07:22:09;;;;;;;49.28;46.75;;;;;;;;;;5112648;27;20031;-59
2024/03/12 07:24:35;;;;;;;39.10;37.05;;;;;;;;;;5114817;27;20049;-59
2024/03/12 07:27:03;;;;;;;40.20;38.10;;;;;;;;;;5118121;27;20050;-59
2024/03/12 07:29:29;;;;;;;38.22;36.13;;;;;;;;;;5096731;27;20039;-59
2024/03/12 07:31:54;;;;;;;29.58;27.98;;;;;;;;;;5114373;27;20717;-61
2024/03/12 07:34:20;;;;;;;35.10;33.20;;;;;;;;;;5113599;27;20023;-60
2024/03/12 07:36:45;;;;;;;37.00;35.08;;;;;;;;;;5113507;27;20374;-60
2024/03/12 07:39:24;;;;;;;39.08;37.05;;;;;;;;;;5113056;27;20684;-60
2024/03/12 07:41:52;;;;;;;40.10;38.03;;;;;;;;;;5112969;27;20031;-60
2024/03/12 07:44:19;;;;;;;36.40;34.40;;;;;;;;;;5114375;27;20092;-60
2024/03/12 07:46:44;;;;;;;46.63;44.22;;;;;;;;;;5115949;27;20038;-60
2024/03/12 07:49:11;;;;;;;54.78;52.00;;;;;;;;;;5110674;27;20115;-60
2024/03/12 07:51:37;;;;;;;40.35;38.25;;;;;;;;;;5115116;27;20153;-60
2024/03/12 07:54:06;;;;;;;36.10;34.20;;;;;;;;;;5113832;27;20122;-60
2024/03/12 07:56:32;;;;;;;40.63;38.00;;;;;;;;;;5094307;27;20046;-60
2024/03/12 07:58:58;;;;;;;33.70;31.77;;;;;;;;;;5112759;27;20032;-60
2024/03/12 08:01:26;;;;;;;31.67;29.98;;;;;;;;;;5097726;27;20032;-60
2024/03/12 08:03:52;;;;;;;32.35;30.40;;;;;;;;;;5113560;27;20031;-60
2024/03/12 08:06:18;;;;;;;35.08;32.50;;;;;;;;;;5116065;27;20042;-60
2024/03/12 08:08:44;;;;;;;33.15;31.38;;;;;;;;;;5113862;27;20035;-62
2024/03/12 08:11:09;;;;;;;33.90;31.98;;;;;;;;;;5113465;27;20483;-60
2024/03/12 08:13:34;;;;;;;41.53;39.20;;;;;;;;;;5117261;27;20033;-60
2024/03/12 08:16:00;;;;;;;50.45;47.80;;;;;;;;;;5116830;27;20149;-61
2024/03/12 08:18:26;;;;;;;50.92;48.30;;;;;;;;;;5112967;27;20461;-60
2024/03/12 08:20:52;;;;;;;56.35;53.38;;;;;;;;;;5115557;27;20035;-60
2024/03/12 08:23:19;;;;;;;60.65;57.47;;;;;;;;;;5114891;27;20476;-61
2024/03/12 08:25:46;;;;;;;57.78;54.80;;;;;;;;;;5113117;27;20035;-60
2024/03/12 08:28:11;;;;;;;60.35;57.28;;;;;;;;;;5114853;27;20038;-60
2024/03/12 08:30:37;;;;;;;58.67;55.67;;;;;;;;;;5088006;27;21214;-60
2024/03/12 08:33:03;;;;;;;57.58;54.65;;;;;;;;;;5114923;27;20038;-60
2024/03/12 08:35:29;;;;;;;56.50;53.63;;;;;;;;;;5114184;27;20050;-60
2024/03/12 08:37:54;;;;;;;48.45;45.97;;;;;;;;;;5112317;27;20032;-60
2024/03/12 08:40:20;;;;;;;61.22;58.08;;;;;;;;;;5110956;27;20101;-60
2024/03/12 08:42:45;;;;;;;59.90;56.83;;;;;;;;;;5112300;27;20042;-60
2024/03/12 08:45:14;;;;;;;64.07;60.83;;;;;;;;;;5115802;27;20031;-60
2024/03/12 08:47:40;;;;;;;57.20;54.25;;;;;;;;;;5096068;27;20345;-60
2024/03/12 08:50:07;;;;;;;61.63;58.38;;;;;;;;;;5098127;27;20554;-60
2024/03/12 08:52:35;;;;;;;61.33;58.08;;;;;;;;;;5114323;27;20035;-60
2024/03/12 08:55:01;;;;;;;59.47;56.45;;;;;;;;;;5108567;27;20508;-60
2024/03/12 08:57:26;;;;;;;63.33;60.05;;;;;;;;;;5111239;27;20051;-60
2024/03/12 08:59:51;;;;;;;61.47;58.20;;;;;;;;;;5110591;27;20027;-60
2024/03/12 09:02:18;;;;;;;58.50;55.20;;;;;;;;;;5114901;27;20081;-60
2024/03/12 09:04:44;;;;;;;53.83;51.03;;;;;;;;;;5114268;27;20487;-60
2024/03/12 09:07:09;;;;;;;57.05;54.13;;;;;;;;;;5097118;27;20035;-60
2024/03/12 09:09:35;;;;;;;54.03;51.22;;;;;;;;;;5094615;27;20492;-60
2024/03/12 09:12:00;;;;;;;58.92;55.75;;;;;;;;;;5110005;27;20039;-60
2024/03/12 09:14:25;;;;;;;49.92;47.33;;;;;;;;;;5110559;27;20457;-60
2024/03/12 09:16:52;;;;;;;59.83;56.63;;;;;;;;;;5112239;27;20383;-60
2024/03/12 09:19:17;;;;;;;54.20;51.47;;;;;;;;;;5112827;27;20035;-61
2024/03/12 09:21:43;;;;;;;57.92;54.83;;;;;;;;;;5114514;27;20399;-62
2024/03/12 09:24:09;;;;;;;60.72;57.47;;;;;;;;;;5109842;27;20031;-61
2024/03/12 09:26:38;;;;;;;57.35;54.35;;;;;;;;;;5114479;27;20047;-63
2024/03/12 09:29:05;;;;;;;50.15;47.58;;;;;;;;;;5110377;27;20050;-60
2024/03/12 09:31:31;;;;;;;48.75;46.17;;;;;;;;;;5114472;27;20503;-60
2024/03/12 09:33:56;;;;;;;51.35;48.72;;;;;;;;;;5110813;27;20027;-60
2024/03/12 09:36:22;;;;;;;59.85;56.78;;;;;;;;;;5110902;27;20027;-60
2024/03/12 09:38:51;;;;;;;62.67;59.47;;;;;;;;;;5110592;27;20113;-60
2024/03/12 09:41:19;;;;;;;67.85;64.25;;;;;;;;;;5095783;27;20545;-60
2024/03/12 09:43:45;;;;;;;65.95;62.40;;;;;;;;;;5114332;27;20035;-60
2024/03/12 09:46:11;;;;;;;63.40;60.15;;;;;;;;;;5093586;27;20050;-60
2024/03/12 09:48:38;;;;;;;55.00;52.00;;;;;;;;;;5110312;27;20024;-59
2024/03/12 09:51:05;;;;;;;64.50;61.08;;;;;;;;;;5111335;27;20099;-60
2024/03/12 09:53:31;;;;;;;70.20;66.50;;;;;;;;;;5110740;27;20426;-60
2024/03/12 09:55:59;;;;;;;63.72;60.45;;;;;;;;;;5110931;27;20035;-60
2024/03/12 09:58:25;;;;;;;69.45;65.95;;;;;;;;;;5095017;27;20051;-61
2024/03/12 10:00:51;;;;;;;67.05;63.55;;;;;;;;;;5096067;27;20030;-61
2024/03/12 10:03:19;;;;;;;66.32;62.60;;;;;;;;;;5113234;27;20437;-61
2024/03/12 10:05:46;;;;;;;66.30;62.65;;;;;;;;;;5119066;27;20043;-62
2024/03/12 10:08:14;;;;;;;61.78;58.47;;;;;;;;;;5113514;27;20045;-63
2024/03/12 10:10:44;;;;;;;64.47;60.88;;;;;;;;;;5114511;27;20092;-62
2024/03/12 10:13:14;;;;;;;64.10;60.70;;;;;;;;;;5113983;27;20342;-63
2024/03/12 10:15:59;;;;;;;59.92;56.85;;;;;;;;;;5111912;27;20070;-62
2024/03/12 10:18:27;;;;;;;58.15;55.05;;;;;;;;;;5110376;27;20106;-60
2024/03/12 10:20:55;;;;;;;64.45;60.88;;;;;;;;;;5110634;27;20513;-60
2024/03/12 10:23:23;;;;;;;62.95;59.63;;;;;;;;;;5091306;28;20039;-60
2024/03/12 10:25:51;;;;;;;61.90;58.70;;;;;;;;;;5113112;28;20443;-60
2024/03/12 10:28:23;;;;;;;63.20;59.90;;;;;;;;;;5113221;27;20032;-60
2024/03/12 10:30:49;;;;;;;62.60;59.40;;;;;;;;;;5111360;28;20035;-60
2024/03/12 10:33:20;;;;;;;53.25;50.50;;;;;;;;;;5111938;28;20170;-62
2024/03/12 10:35:47;;;;;;;54.25;51.22;;;;;;;;;;5109940;28;20040;-61
2024/03/12 10:38:13;;;;;;;49.17;46.58;;;;;;;;;;5111648;28;20023;-59
2024/03/12 10:40:39;;;;;;;37.80;35.67;;;;;;;;;;5109688;28;20019;-61
2024/03/12 10:43:06;;;;;;;52.25;49.47;;;;;;;;;;5112210;28;20481;-60
2024/03/12 10:45:32;;;;;;;57.72;54.78;;;;;;;;;;5112144;28;20032;-61
2024/03/12 10:47:59;;;;;;;65.53;62.08;;;;;;;;;;5110977;28;20539;-62
2024/03/12 10:50:25;;;;;;;60.28;56.97;;;;;;;;;;5112330;28;20446;-62
2024/03/12 10:52:54;;;;;;;51.53;48.83;;;;;;;;;;5113408;28;20084;-60
2024/03/12 10:55:23;;;;;;;54.58;51.50;;;;;;;;;;5113723;28;20038;-61
2024/03/12 10:57:53;;;;;;;59.97;56.53;;;;;;;;;;5110209;28;20472;-59
2024/03/12 11:00:25;;;;;;;42.83;40.38;;;;;;;;;;5109514;28;20031;-59
2024/03/12 11:02:52;;;;;;;31.33;29.55;;;;;;;;;;5112759;28;20032;-59
2024/03/12 11:05:20;;;;;;;26.98;25.48;;;;;;;;;;5111421;28;20452;-59
2024/03/12 11:07:46;;;;;;;28.45;26.85;;;;;;;;;;5114691;28;20096;-59
2024/03/12 11:10:12;;;;;;;30.58;28.88;;;;;;;;;;5110380;28;20055;-60
2024/03/12 11:12:39;;;;;;;31.30;29.52;;;;;;;;;;5113121;28;20046;-59
2024/03/12 11:15:09;;;;;;;32.00;30.27;;;;;;;;;;5111425;28;20024;-60
2024/03/12 11:17:37;;;;;;;30.80;28.90;;;;;;;;;;5111960;28;20488;-59
2024/03/12 11:20:05;;;;;;;30.35;28.58;;;;;;;;;;5116628;27;20027;-62
2024/03/12 11:22:32;;;;;;;29.20;27.40;;;;;;;;;;5120889;27;20706;-60
2024/03/12 11:24:57;;;;;;;35.38;33.47;;;;;;;;;;5115545;27;20035;-61
2024/03/12 11:27:26;;;;;;;39.33;37.20;;;;;;;;;;5119537;27;20815;-60
2024/03/12 11:30:04;;;;;;;38.85;36.75;;;;;;;;;;5115156;27;20028;-60
2024/03/12 11:32:38;;;;;;;35.85;33.45;;;;;;;;;;5117398;27;20031;-60
2024/03/12 11:35:27;;;;;;;36.63;34.72;;;;;;;;;;5115665;27;20051;-59
2024/03/12 11:37:55;;;;;;;36.20;34.30;;;;;;;;;;5091769;27;20130;-59
2024/03/12 11:40:34;;;;;;;36.42;34.33;;;;;;;;;;5115391;27;20139;-61
2024/03/12 11:43:00;;;;;;;35.30;33.40;;;;;;;;;;5116806;27;20063;-61
2024/03/12 11:45:45;;;;;;;34.78;32.90;;;;;;;;;;5115895;27;20085;-59
2024/03/12 11:48:13;;;;;;;35.08;33.17;;;;;;;;;;5112186;27;20120;-61
2024/03/12 11:50:44;;;;;;;32.30;30.50;;;;;;;;;;5108387;27;20139;-61
2024/03/12 11:53:25;;;;;;;32.85;31.05;;;;;;;;;;5115835;27;20058;-62
2024/03/12 11:56:06;;;;;;;34.67;32.78;;;;;;;;;;5113305;27;20085;-62
2024/03/12 11:58:38;;;;;;;35.65;33.70;;;;;;;;;;5116400;27;20024;-62
2024/03/12 12:01:06;;;;;;;35.00;32.80;;;;;;;;;;5115071;27;20065;-62
2024/03/12 12:03:34;;;;;;;38.05;35.92;;;;;;;;;;5112826;27;20073;-59
2024/03/12 12:06:00;;;;;;;36.17;34.17;;;;;;;;;;5096714;27;20115;-59
2024/03/12 12:08:27;;;;;;;35.63;33.75;;;;;;;;;;5091931;27;20031;-60
2024/03/12 12:11:11;;;;;;;41.83;39.53;;;;;;;;;;5113272;27;20067;-58
2024/03/12 12:13:37;;;;;;;43.78;41.42;;;;;;;;;;5113411;27;20035;-58
2024/03/12 12:16:06;;;;;;;39.25;37.15;;;;;;;;;;5114462;27;20032;-58
2024/03/12 12:18:34;;;;;;;41.50;39.30;;;;;;;;;;5114875;27;20116;-58
2024/03/12 12:21:18;;;;;;;47.17;44.22;;;;;;;;;;5117604;27;20023;-60
2024/03/12 12:23:47;;;;;;;41.35;39.10;;;;;;;;;;5115150;27;20050;-60
2024/03/12 12:26:21;;;;;;;42.20;39.70;;;;;;;;;;5114838;27;20039;-60
2024/03/12 12:28:48;;;;;;;46.67;44.17;;;;;;;;;;5114202;27;20058;-61
2024/03/12 12:31:16;;;;;;;48.72;46.08;;;;;;;;;;5112267;27;20533;-61
2024/03/12 12:33:48;;;;;;;42.30;40.05;;;;;;;;;;5114040;27;20044;-61
2024/03/12 12:36:14;;;;;;;45.30;42.78;;;;;;;;;;5115106;27;20031;-59
2024/03/12 12:38:42;;;;;;;39.70;37.60;;;;;;;;;;5111399;27;20035;-60
2024/03/12 12:41:08;;;;;;;43.03;40.60;;;;;;;;;;5111476;27;20050;-58
2024/03/12 12:43:34;;;;;;;42.83;40.60;;;;;;;;;;5114336;27;20520;-58
2024/03/12 12:46:05;;;;;;;43.75;41.25;;;;;;;;;;5074978;27;20127;-58
2024/03/12 12:48:30;;;;;;;36.53;34.42;;;;;;;;;;5117014;27;20065;-58
2024/03/12 12:50:59;;;;;;;39.70;37.35;;;;;;;;;;5112498;27;20040;-59
2024/03/12 12:53:26;;;;;;;43.47;41.08;;;;;;;;;;5114485;27;20098;-60
2024/03/12 12:55:58;;;;;;;44.35;41.95;;;;;;;;;;5111656;27;20038;-60
2024/03/12 12:58:25;;;;;;;47.58;45.17;;;;;;;;;;5114857;27;20031;-60
2024/03/12 13:01:10;;;;;;;43.72;41.42;;;;;;;;;;5112708;27;20023;-60
2024/03/12 13:03:38;;;;;;;42.50;40.17;;;;;;;;;;5114390;27;20042;-60
2024/03/12 13:06:39;;;;;;;43.10;40.80;;;;;;;;;;5111035;27;20092;-60
2024/03/12 13:09:04;;;;;;;43.42;41.13;;;;;;;;;;5113073;27;20045;-59
2024/03/12 13:11:31;;;;;;;38.05;35.95;;;;;;;;;;5113182;27;20039;-58
2024/03/12 13:13:56;;;;;;;35.90;33.90;;;;;;;;;;5076026;27;20080;-58
2024/03/12 13:16:25;;;;;;;36.58;34.58;;;;;;;;;;5113842;27;20110;-59
2024/03/12 13:18:52;;;;;;;36.17;33.95;;;;;;;;;;5111281;27;20030;-60
2024/03/12 13:21:23;;;;;;;36.53;34.53;;;;;;;;;;5113241;27;20412;-59
2024/03/12 13:23:49;;;;;;;40.13;37.92;;;;;;;;;;5111651;27;20031;-57
2024/03/12 13:26:19;;;;;;;39.65;37.28;;;;;;;;;;5112682;27;20046;-58
2024/03/12 13:28:46;;;;;;;40.92;38.63;;;;;;;;;;5112398;27;20081;-59
2024/03/12 13:31:12;;;;;;;43.88;41.47;;;;;;;;;;5112766;27;20039;-59
2024/03/12 13:33:38;;;;;;;38.80;36.60;;;;;;;;;;5108457;27;20050;-61
2024/03/12 13:36:09;;;;;;;43.85;41.38;;;;;;;;;;5109456;27;20440;-60
2024/03/12 13:38:35;;;;;;;;;;;;;;;;;;5108424;27;20031;-60
2024/03/12 13:41:00;;;;;;;38.50;36.42;;;;;;;;;;5099261;27;19915;-60
2024/03/12 13:43:27;;;;;;;40.40;38.08;;;;;;;;;;5092288;27;20429;-60
2024/03/12 13:45:55;;;;;;;41.40;38.90;;;;;;;;;;5109516;27;20032;-60
2024/03/12 13:48:26;;;;;;;44.95;42.50;;;;;;;;;;5111916;27;20107;-60
2024/03/12 13:51:00;;;;;;;38.95;36.75;;;;;;;;;;5111443;27;20031;-60
2024/03/12 13:53:27;;;;;;;37.80;35.63;;;;;;;;;;5107126;27;20110;-60
2024/03/12 13:56:00;;;;;;;38.08;36.08;;;;;;;;;;5111350;27;20509;-58
2024/03/12 13:58:25;;;;;;;36.83;34.20;;;;;;;;;;5112345;27;20027;-59
2024/03/12 14:00:55;;;;;;;34.30;32.50;;;;;;;;;;5109141;27;20031;-59
2024/03/12 14:03:22;;;;;;;34.70;32.70;;;;;;;;;;5094906;27;20148;-60
2024/03/12 14:05:48;;;;;;;36.33;34.03;;;;;;;;;;5106238;27;20036;-60
2024/03/12 14:08:18;;;;;;;33.75;31.58;;;;;;;;;;5094929;27;20449;-60
2024/03/12 14:10:46;;;;;;;31.08;29.17;;;;;;;;;;5111739;27;20035;-59
2024/03/12 14:13:11;;;;;;;36.63;34.63;;;;;;;;;;5108409;27;20386;-60
2024/03/12 14:15:37;;;;;;;29.00;27.20;;;;;;;;;;5107161;27;20039;-59
2024/03/12 14:18:06;;;;;;;29.67;27.77;;;;;;;;;;5108050;27;20031;-60
2024/03/12 14:20:33;;;;;;;30.42;28.63;;;;;;;;;;5104638;27;20054;-59
2024/03/12 14:22:58;;;;;;;30.20;28.55;;;;;;;;;;5106318;27;20028;-58
2024/03/12 14:25:27;;;;;;;34.92;33.00;;;;;;;;;;5108069;28;20046;-58